Time;durP1;ratioP1;P1;durP2;ratioP2;P2;SDS_P1;SDS_P2;PMS_P1;PMS_P2;Temp;Humidity;BMP_temperature;BMP_pressure;BME280_temperature;BME280_humidity;BME280_pressure;Samples;Min_cycle;Max_cycle;Signal;HPM_P1;HPM_P2
2021/09/04 00:00:13;;;;;;;6.83;5.60;;;18.80;98.90;;;;;;4983459;28;20222;-69
2021/09/04 00:02:39;;;;;;;8.97;6.23;;;18.70;99.00;;;;;;4999819;28;20316;-69
2021/09/04 00:05:06;;;;;;;7.10;6.40;;;18.70;99.00;;;;;;4996534;28;20522;-69
2021/09/04 00:07:32;;;;;;;7.47;6.73;;;18.70;99.00;;;;;;4992790;28;20810;-69
2021/09/04 00:09:59;;;;;;;8.73;6.03;;;18.60;99.20;;;;;;5002844;28;20472;-69
2021/09/04 00:12:26;;;;;;;8.43;6.10;;;18.60;99.10;;;;;;5004534;28;20874;-69
2021/09/04 00:14:53;;;;;;;7.27;6.20;;;18.60;99.20;;;;;;5001521;28;20552;-69
2021/09/04 00:17:19;;;;;;;8.20;5.20;;;18.60;99.20;;;;;;4981731;28;20547;-69
2021/09/04 00:19:44;;;;;;;9.73;6.57;;;18.50;99.10;;;;;;4999331;28;20559;-69
2021/09/04 00:22:10;;;;;;;7.10;5.67;;;18.50;99.10;;;;;;4982333;28;20288;-68
2021/09/04 00:24:36;;;;;;;7.17;5.47;;;18.50;99.10;;;;;;4988696;28;20220;-69
2021/09/04 00:27:03;;;;;;;9.50;5.90;;;18.50;99.20;;;;;;4996413;28;20224;-69
2021/09/04 00:29:29;;;;;;;7.20;5.83;;;18.50;99.20;;;;;;4998381;28;20472;-69
2021/09/04 00:31:54;;;;;;;6.50;5.17;;;18.50;99.30;;;;;;4982045;28;20491;-68
2021/09/04 00:34:20;;;;;;;6.10;5.50;;;18.50;99.20;;;;;;4999334;28;20683;-68
2021/09/04 00:36:46;;;;;;;6.50;5.90;;;18.40;99.20;;;;;;4993348;28;20224;-68
2021/09/04 00:39:11;;;;;;;8.30;5.97;;;18.40;99.30;;;;;;4980218;28;20245;-69
2021/09/04 00:41:37;;;;;;;7.77;6.70;;;18.40;99.30;;;;;;5004920;28;20262;-69
2021/09/04 00:44:04;;;;;;;6.77;5.80;;;18.30;99.30;;;;;;5001624;28;20310;-69
2021/09/04 00:46:30;;;;;;;6.83;6.00;;;18.30;99.20;;;;;;5004637;28;20468;-69
2021/09/04 00:48:56;;;;;;;7.10;6.40;;;18.30;99.30;;;;;;4990078;28;20517;-69
2021/09/04 00:51:22;;;;;;;6.80;5.40;;;18.20;99.30;;;;;;4992067;28;20475;-69
2021/09/04 00:53:49;;;;;;;6.37;5.77;;;18.20;99.30;;;;;;4990165;28;20472;-70
2021/09/04 00:56:15;;;;;;;7.77;5.57;;;18.20;99.30;;;;;;4992286;28;20217;-69
2021/09/04 00:58:42;;;;;;;7.07;5.57;;;18.20;99.40;;;;;;4991976;28;20463;-69
2021/09/04 01:01:08;;;;;;;6.33;5.63;;;18.10;99.30;;;;;;4992206;28;20460;-69
2021/09/04 01:03:36;;;;;;;6.63;5.93;;;18.10;99.30;;;;;;4991414;28;20468;-70
2021/09/04 01:06:02;;;;;;;6.80;5.63;;;18.10;99.40;;;;;;4989324;28;20472;-70
2021/09/04 01:08:30;;;;;;;9.03;6.00;;;18.00;99.40;;;;;;4991876;28;20228;-70
2021/09/04 01:10:56;;;;;;;6.87;5.53;;;18.00;99.50;;;;;;4986471;28;20465;-69
2021/09/04 01:13:22;;;;;;;6.20;5.37;;;18.00;99.50;;;;;;5001598;28;20475;-69
2021/09/04 01:15:48;;;;;;;6.63;5.80;;;18.00;99.60;;;;;;5005975;28;20460;-70
2021/09/04 01:18:14;;;;;;;6.03;5.50;;;17.90;99.60;;;;;;4995688;28;20213;-69
2021/09/04 01:20:40;;;;;;;7.93;6.10;;;17.90;99.50;;;;;;5012547;28;20491;-68
2021/09/04 01:23:06;;;;;;;7.07;6.20;;;17.90;99.60;;;;;;4989139;28;20456;-68
2021/09/04 01:25:33;;;;;;;6.10;5.50;;;17.80;99.60;;;;;;4997328;28;20718;-68
2021/09/04 01:28:01;;;;;;;7.40;6.20;;;17.70;99.60;;;;;;5005980;28;20244;-69
2021/09/04 01:30:28;;;;;;;6.27;5.63;;;17.70;99.70;;;;;;5008156;28;20471;-69
2021/09/04 01:32:54;;;;;;;7.27;5.80;;;17.60;99.80;;;;;;4987926;28;20472;-69
2021/09/04 01:35:24;;;;;;;6.90;5.80;;;17.70;99.80;;;;;;5004652;28;20456;-68
2021/09/04 01:37:51;;;;;;;7.80;5.70;;;17.70;99.70;;;;;;5005417;28;20283;-69
2021/09/04 01:40:17;;;;;;;6.77;5.43;;;17.70;99.70;;;;;;4991721;28;20527;-68
2021/09/04 01:42:45;;;;;;;6.87;5.77;;;17.60;99.60;;;;;;4995404;28;20884;-69
2021/09/04 01:45:12;;;;;;;6.40;5.43;;;17.60;99.60;;;;;;5010963;28;20456;-69
2021/09/04 01:47:37;;;;;;;7.00;5.40;;;17.60;99.60;;;;;;5007979;28;20456;-69
2021/09/04 01:50:09;;;;;;;8.20;6.07;;;17.60;99.60;;;;;;4986052;28;20591;-69
2021/09/04 01:52:35;;;;;;;9.40;6.67;;;17.50;99.60;;;;;;4999265;28;20232;-68
2021/09/04 01:55:01;;;;;;;7.70;5.77;;;17.50;99.60;;;;;;5005884;28;20521;-69
2021/09/04 01:57:26;;;;;;;6.23;5.63;;;17.50;99.60;;;;;;4990890;28;20535;-69
2021/09/04 01:59:52;;;;;;;5.23;4.67;;;17.50;99.70;;;;;;5005935;28;20297;-69
2021/09/04 02:02:18;;;;;;;5.83;4.93;;;17.50;99.70;;;;;;5006129;28;20367;-69
2021/09/04 02:04:43;;;;;;;6.93;5.87;;;17.50;99.70;;;;;;4988350;28;20288;-69
2021/09/04 02:07:09;;;;;;;5.80;5.13;;;17.40;99.80;;;;;;4989818;28;20314;-68
2021/09/04 02:09:34;;;;;;;7.80;6.07;;;17.30;99.80;;;;;;4989909;28;20271;-70
2021/09/04 02:12:00;;;;;;;7.50;5.80;;;17.30;99.80;;;;;;4998929;28;20229;-70
2021/09/04 02:14:26;;;;;;;7.07;6.27;;;17.30;99.90;;;;;;4989464;28;20213;-69
2021/09/04 02:16:52;;;;;;;8.80;6.60;;;17.30;99.90;;;;;;4980771;28;20218;-70
2021/09/04 02:19:19;;;;;;;7.03;5.40;;;17.30;99.80;;;;;;4989622;28;20246;-68
2021/09/04 02:21:45;;;;;;;11.23;6.50;;;17.30;99.90;;;;;;4984989;28;20976;-70
2021/09/04 02:24:12;;;;;;;6.30;5.27;;;17.20;99.90;;;;;;4999578;28;20236;-68
2021/09/04 02:26:39;;;;;;;6.83;5.73;;;17.20;99.90;;;;;;5005148;28;20463;-69
2021/09/04 02:29:06;;;;;;;8.03;5.80;;;17.20;99.90;;;;;;4998084;28;20456;-69
2021/09/04 02:31:32;;;;;;;7.47;5.70;;;17.10;99.90;;;;;;4998676;28;20826;-69
2021/09/04 02:33:57;;;;;;;7.10;6.40;;;17.10;99.90;;;;;;4997661;28;20230;-70
2021/09/04 02:36:23;;;;;;;6.53;5.93;;;17.10;99.90;;;;;;4980904;28;20630;-69
2021/09/04 02:38:50;;;;;;;8.43;6.17;;;17.10;99.90;;;;;;4985418;28;20228;-70
2021/09/04 02:41:17;;;;;;;9.03;6.00;;;17.00;99.90;;;;;;4984599;28;20461;-69
2021/09/04 02:43:43;;;;;;;10.20;7.00;;;17.00;99.90;;;;;;4997262;28;20469;-70
2021/09/04 02:46:10;;;;;;;9.27;5.70;;;17.00;99.90;;;;;;4996286;28;20460;-69
2021/09/04 02:48:36;;;;;;;7.60;5.20;;;17.00;99.90;;;;;;5003267;28;20477;-70
2021/09/04 02:51:03;;;;;;;8.07;6.00;;;17.00;99.90;;;;;;4998169;28;20245;-69
2021/09/04 02:53:29;;;;;;;8.47;6.23;;;17.00;99.90;;;;;;4986088;28;20468;-69
2021/09/04 02:55:55;;;;;;;8.57;6.27;;;17.00;99.90;;;;;;4997405;28;20555;-70
2021/09/04 02:58:21;;;;;;;7.33;5.77;;;17.00;99.90;;;;;;4980764;28;20949;-69
2021/09/04 03:00:47;;;;;;;7.33;5.63;;;16.90;99.90;;;;;;4984262;28;20239;-69
2021/09/04 03:03:14;;;;;;;6.80;5.23;;;16.90;99.90;;;;;;5000538;28;20734;-69
2021/09/04 03:05:40;;;;;;;6.83;5.60;;;16.90;99.90;;;;;;4996824;28;20491;-69
2021/09/04 03:08:06;;;;;;;9.07;6.63;;;16.90;99.90;;;;;;5000850;28;20214;-69
2021/09/04 03:10:32;;;;;;;20.63;6.47;;;16.90;99.90;;;;;;5004746;28;20550;-69
2021/09/04 03:13:00;;;;;;;7.63;6.30;;;16.90;99.90;;;;;;4997871;28;20511;-70
2021/09/04 03:15:26;;;;;;;8.17;6.13;;;16.80;99.90;;;;;;4992454;28;20479;-69
2021/09/04 03:17:52;;;;;;;7.23;6.20;;;16.80;99.90;;;;;;4992806;28;20249;-70
2021/09/04 03:20:19;;;;;;;6.93;5.77;;;16.80;99.90;;;;;;4999770;28;20456;-69
2021/09/04 03:22:47;;;;;;;7.97;5.63;;;16.80;99.90;;;;;;4996026;28;20478;-69
2021/09/04 03:25:13;;;;;;;7.63;6.23;;;16.80;99.90;;;;;;4990728;28;20477;-69
2021/09/04 03:27:41;;;;;;;5.67;5.13;;;16.70;99.90;;;;;;5002732;28;20463;-69
2021/09/04 03:30:08;;;;;;;7.43;6.10;;;16.70;99.90;;;;;;4977686;28;20528;-69
2021/09/04 03:32:34;;;;;;;7.03;5.80;;;16.70;99.90;;;;;;5002722;28;20506;-69
2021/09/04 03:35:00;;;;;;;6.20;5.60;;;16.60;99.90;;;;;;4985286;28;20460;-70
2021/09/04 03:37:27;;;;;;;7.20;5.53;;;16.60;99.90;;;;;;4997967;28;20491;-69
2021/09/04 03:39:53;;;;;;;8.23;6.40;;;16.60;99.90;;;;;;4981575;28;20535;-69
2021/09/04 03:42:19;;;;;;;7.07;6.13;;;16.60;99.90;;;;;;4983681;28;20253;-69
2021/09/04 03:44:45;;;;;;;16.13;9.70;;;16.60;99.90;;;;;;4986838;28;20209;-70
2021/09/04 03:47:13;;;;;;;18.60;12.00;;;16.60;99.90;;;;;;5003411;28;20456;-69
2021/09/04 03:49:38;;;;;;;14.27;9.97;;;16.50;99.90;;;;;;4988498;28;20507;-70
2021/09/04 03:52:04;;;;;;;15.10;11.00;;;16.50;99.90;;;;;;4982672;28;20243;-69
2021/09/04 03:54:32;;;;;;;12.67;9.80;;;16.50;99.90;;;;;;5003113;28;20213;-70
2021/09/04 03:56:58;;;;;;;14.67;10.77;;;16.40;99.90;;;;;;5000493;28;20460;-69
2021/09/04 03:59:26;;;;;;;15.80;12.10;;;16.40;99.90;;;;;;4987035;28;20487;-69
2021/09/04 04:01:52;;;;;;;26.10;16.87;;;16.40;99.90;;;;;;4993689;28;20514;-70
2021/09/04 04:04:18;;;;;;;27.07;18.03;;;16.40;99.90;;;;;;4983228;28;20449;-70
2021/09/04 04:06:45;;;;;;;31.00;21.33;;;16.40;99.90;;;;;;4982054;28;20220;-69
2021/09/04 04:09:11;;;;;;;38.20;27.93;;;16.40;99.90;;;;;;4971919;28;20448;-69
2021/09/04 04:11:38;;;;;;;44.47;33.17;;;16.30;99.90;;;;;;5000450;28;20893;-69
2021/09/04 04:14:04;;;;;;;25.60;20.93;;;16.30;99.90;;;;;;4985042;28;20221;-69
2021/09/04 04:16:30;;;;;;;19.07;14.37;;;16.30;99.90;;;;;;5000002;28;20511;-69
2021/09/04 04:18:56;;;;;;;25.80;18.33;;;16.30;99.90;;;;;;4990123;28;20646;-69
2021/09/04 04:21:23;;;;;;;27.87;22.10;;;16.20;99.90;;;;;;4993682;28;20456;-69
2021/09/04 04:23:49;;;;;;;29.63;22.70;;;16.20;99.90;;;;;;5006642;28;20471;-69
2021/09/04 04:26:16;;;;;;;32.03;24.70;;;16.10;99.90;;;;;;5008430;28;20452;-67
2021/09/04 04:28:42;;;;;;;39.50;27.10;;;16.10;99.90;;;;;;5000425;28;20467;-69
2021/09/04 04:31:09;;;;;;;34.30;23.70;;;16.10;99.90;;;;;;4999691;28;20453;-69
2021/09/04 04:33:36;;;;;;;25.43;21.83;;;16.10;99.90;;;;;;5001441;28;20843;-69
2021/09/04 04:36:02;;;;;;;25.73;20.10;;;16.10;99.90;;;;;;5001507;28;20464;-70
2021/09/04 04:38:28;;;;;;;19.67;15.37;;;16.10;99.90;;;;;;5005164;28;20224;-70
2021/09/04 04:40:55;;;;;;;14.43;11.30;;;16.00;99.90;;;;;;5004259;28;20477;-70
2021/09/04 04:43:20;;;;;;;10.73;8.83;;;16.00;99.90;;;;;;4991748;28;20472;-70
2021/09/04 04:45:46;;;;;;;9.83;8.83;;;15.90;99.90;;;;;;4998230;28;20212;-69
2021/09/04 04:48:12;;;;;;;15.33;11.17;;;16.00;99.90;;;;;;4990392;28;20459;-69
2021/09/04 04:50:38;;;;;;;12.83;11.00;;;16.00;99.90;;;;;;4991804;28;20220;-69
2021/09/04 04:53:05;;;;;;;13.00;11.60;;;16.00;99.90;;;;;;4986230;28;20773;-69
2021/09/04 04:55:31;;;;;;;10.80;9.63;;;15.90;99.90;;;;;;5004305;28;20464;-70
2021/09/04 04:57:57;;;;;;;11.60;9.03;;;15.90;99.90;;;;;;4990565;28;20492;-69
2021/09/04 05:00:24;;;;;;;8.70;7.80;;;15.80;99.90;;;;;;4969605;28;20963;-69
2021/09/04 05:02:50;;;;;;;9.37;7.00;;;15.80;99.90;;;;;;4996350;28;20554;-69
2021/09/04 05:05:16;;;;;;;9.40;6.60;;;15.80;99.90;;;;;;5006814;28;20356;-69
2021/09/04 05:07:42;;;;;;;9.97;7.83;;;15.80;99.90;;;;;;4988966;28;20211;-70
2021/09/04 05:10:10;;;;;;;9.60;8.60;;;15.80;99.90;;;;;;4991459;28;20452;-70
2021/09/04 05:12:37;;;;;;;11.87;8.47;;;15.80;99.90;;;;;;4990756;28;20484;-69
2021/09/04 05:15:03;;;;;;;9.50;7.00;;;15.80;99.90;;;;;;4998672;28;20541;-69
2021/09/04 05:17:30;;;;;;;8.73;6.80;;;15.80;99.90;;;;;;5001288;28;20213;-69
2021/09/04 05:19:56;;;;;;;12.43;6.73;;;15.80;99.90;;;;;;4997305;28;21001;-69
2021/09/04 05:22:23;;;;;;;7.17;6.27;;;15.80;99.90;;;;;;5004722;28;20298;-69
2021/09/04 05:24:50;;;;;;;8.47;6.60;;;15.80;99.90;;;;;;4989125;28;20459;-69
2021/09/04 05:27:16;;;;;;;7.17;6.47;;;15.80;99.90;;;;;;4999360;28;20450;-69
2021/09/04 05:29:43;;;;;;;10.63;5.93;;;15.70;99.90;;;;;;4989623;28;20449;-69
2021/09/04 05:32:08;;;;;;;11.80;5.77;;;15.70;99.90;;;;;;4993539;28;20451;-68
2021/09/04 05:34:34;;;;;;;6.63;5.90;;;15.70;99.90;;;;;;5005334;28;20253;-69
2021/09/04 05:36:59;;;;;;;6.20;5.60;;;15.70;99.90;;;;;;4989562;28;20601;-69
2021/09/04 05:39:26;;;;;;;8.50;6.10;;;15.70;99.90;;;;;;4992810;28;20213;-69
2021/09/04 05:41:51;;;;;;;7.07;5.67;;;15.70;99.90;;;;;;5006875;28;20291;-70
2021/09/04 05:44:17;;;;;;;8.70;6.03;;;15.70;99.90;;;;;;4988938;28;20998;-69
2021/09/04 05:46:43;;;;;;;8.67;6.93;;;15.70;99.90;;;;;;4994872;28;20979;-69
2021/09/04 05:49:09;;;;;;;8.83;6.80;;;15.70;99.90;;;;;;4982286;28;20827;-69
2021/09/04 05:51:34;;;;;;;9.43;6.97;;;15.70;99.90;;;;;;4988671;28;20703;-69
2021/09/04 05:54:00;;;;;;;8.77;6.30;;;15.70;99.90;;;;;;5004000;28;20702;-69
2021/09/04 05:56:25;;;;;;;8.13;6.87;;;15.70;99.90;;;;;;4988613;28;20241;-69
2021/09/04 05:58:51;;;;;;;8.00;6.90;;;15.80;99.90;;;;;;4990197;28;20218;-70
2021/09/04 06:01:17;;;;;;;7.90;7.10;;;15.70;99.90;;;;;;4986281;28;20224;-69
2021/09/04 06:03:42;;;;;;;8.23;6.27;;;15.70;99.90;;;;;;5005396;28;20240;-69
2021/09/04 06:06:08;;;;;;;9.90;6.70;;;15.70;99.90;;;;;;5002474;28;20966;-69
2021/09/04 06:08:34;;;;;;;7.93;6.57;;;15.80;99.90;;;;;;4990311;28;20224;-70
2021/09/04 06:11:00;;;;;;;9.97;6.87;;;15.80;99.90;;;;;;4978042;28;20229;-69
2021/09/04 06:13:25;;;;;;;8.70;6.80;;;15.80;99.90;;;;;;4980689;28;20225;-69
2021/09/04 06:15:51;;;;;;;7.20;6.43;;;15.80;99.90;;;;;;4976822;28;20225;-69
2021/09/04 06:18:16;;;;;;;7.30;6.10;;;15.80;99.90;;;;;;5005921;28;20241;-69
2021/09/04 06:20:42;;;;;;;8.57;7.20;;;15.80;99.90;;;;;;4993040;28;20295;-69
2021/09/04 06:23:08;;;;;;;8.03;6.00;;;15.90;99.90;;;;;;4997557;28;20368;-69
2021/09/04 06:25:34;;;;;;;9.97;6.20;;;15.90;99.90;;;;;;4993554;28;20664;-69
2021/09/04 06:28:00;;;;;;;8.23;6.40;;;15.90;99.90;;;;;;4983087;28;20225;-70
2021/09/04 06:30:26;;;;;;;11.57;6.80;;;15.90;99.90;;;;;;4988406;28;20494;-69
2021/09/04 06:32:51;;;;;;;10.13;7.27;;;16.00;99.90;;;;;;5002388;28;20464;-69
2021/09/04 06:35:17;;;;;;;8.50;6.50;;;16.00;99.90;;;;;;5002357;28;20213;-69
2021/09/04 06:37:43;;;;;;;9.03;6.20;;;16.00;99.90;;;;;;5006213;28;20219;-70
2021/09/04 06:40:09;;;;;;;8.13;6.37;;;16.00;99.90;;;;;;4983018;28;20237;-69
2021/09/04 06:42:34;;;;;;;7.23;6.17;;;16.10;99.90;;;;;;4981191;28;20249;-69
2021/09/04 06:45:00;;;;;;;8.97;6.27;;;16.10;99.90;;;;;;4992273;28;20221;-70
2021/09/04 06:47:25;;;;;;;6.60;5.80;;;16.10;99.90;;;;;;4981377;28;20409;-69
2021/09/04 06:49:51;;;;;;;6.97;6.03;;;16.20;99.90;;;;;;4986517;28;20213;-70
2021/09/04 06:52:17;;;;;;;7.17;5.53;;;16.20;99.90;;;;;;4986749;28;20311;-69
2021/09/04 06:54:42;;;;;;;8.17;7.07;;;16.20;99.90;;;;;;4988753;28;20647;-69
2021/09/04 06:57:08;;;;;;;7.30;5.73;;;16.30;99.90;;;;;;5014394;28;20220;-69
2021/09/04 06:59:33;;;;;;;8.77;5.97;;;16.30;99.90;;;;;;5003394;28;20209;-69
2021/09/04 07:01:59;;;;;;;8.80;6.10;;;16.40;99.90;;;;;;4998592;28;20789;-70
2021/09/04 07:04:25;;;;;;;6.87;5.40;;;16.40;99.90;;;;;;4980160;28;20227;-70
2021/09/04 07:06:50;;;;;;;9.27;7.27;;;16.50;99.90;;;;;;4996396;28;20257;-69
2021/09/04 07:09:16;;;;;;;8.57;6.37;;;16.60;99.90;;;;;;4982534;28;20226;-69
2021/09/04 07:11:42;;;;;;;7.70;6.90;;;16.60;99.90;;;;;;4982600;28;20279;-69
2021/09/04 07:14:07;;;;;;;7.90;6.00;;;16.70;99.90;;;;;;4998566;28;20221;-69
2021/09/04 07:16:33;;;;;;;8.17;5.67;;;16.80;99.90;;;;;;4980097;28;20218;-69
2021/09/04 07:18:59;;;;;;;7.10;5.73;;;16.90;99.90;;;;;;4997770;28;20224;-69
2021/09/04 07:21:25;;;;;;;8.50;6.20;;;16.90;99.90;;;;;;5003723;28;20646;-68
2021/09/04 07:23:50;;;;;;;9.23;7.20;;;17.00;99.90;;;;;;4992316;28;20229;-70
2021/09/04 07:26:16;;;;;;;8.23;5.87;;;17.10;99.90;;;;;;4988150;28;20225;-69
2021/09/04 07:28:42;;;;;;;7.00;6.23;;;17.10;99.90;;;;;;4978756;28;20311;-69
2021/09/04 07:31:11;;;;;;;7.00;5.90;;;17.20;99.90;;;;;;4985726;28;20241;-70
2021/09/04 07:33:36;;;;;;;7.73;5.80;;;17.30;99.90;;;;;;5016340;28;20253;-69
2021/09/04 07:36:08;;;;;;;6.33;5.73;;;17.40;99.90;;;;;;5004631;28;20553;-70
2021/09/04 07:38:34;;;;;;;8.10;5.77;;;17.40;99.90;;;;;;5005612;28;20263;-70
2021/09/04 07:41:00;;;;;;;9.53;6.40;;;17.50;99.90;;;;;;4990424;28;20483;-70
2021/09/04 07:43:26;;;;;;;8.17;6.23;;;17.60;99.90;;;;;;5008223;28;20981;-69
2021/09/04 07:45:51;;;;;;;8.00;6.13;;;17.70;99.90;;;;;;4987352;28;20232;-69
2021/09/04 07:48:17;;;;;;;6.20;5.60;;;17.80;99.90;;;;;;4985718;28;20221;-69
2021/09/04 07:50:43;;;;;;;7.80;5.63;;;17.90;99.90;;;;;;4983450;28;20228;-69
2021/09/04 07:53:08;;;;;;;7.00;5.63;;;18.00;99.90;;;;;;5002920;28;20221;-69
2021/09/04 07:55:34;;;;;;;7.93;5.73;;;18.20;99.90;;;;;;4994376;28;20240;-69
2021/09/04 07:58:00;;;;;;;8.70;7.27;;;18.30;99.90;;;;;;4996738;28;20221;-69
2021/09/04 08:00:26;;;;;;;6.10;4.87;;;18.40;99.90;;;;;;5002500;28;20227;-69
2021/09/04 08:02:52;;;;;;;8.63;6.83;;;18.60;99.90;;;;;;4997771;28;20225;-69
2021/09/04 08:05:18;;;;;;;7.40;6.57;;;18.70;99.90;;;;;;4989799;28;20459;-69
2021/09/04 08:07:43;;;;;;;7.17;5.60;;;18.80;99.90;;;;;;5005329;28;20217;-70
2021/09/04 08:10:09;;;;;;;8.10;6.67;;;18.80;99.90;;;;;;4989465;28;20221;-69
2021/09/04 08:12:35;;;;;;;6.67;5.60;;;18.90;99.90;;;;;;4988171;28;20595;-69
2021/09/04 08:15:01;;;;;;;6.63;5.90;;;18.90;99.90;;;;;;5011168;28;20792;-69
2021/09/04 08:17:26;;;;;;;7.37;5.70;;;19.10;99.90;;;;;;4991825;28;20224;-69
2021/09/04 08:19:52;;;;;;;6.60;5.57;;;19.10;99.90;;;;;;4984826;28;20221;-69
2021/09/04 08:22:18;;;;;;;6.60;5.93;;;19.20;99.90;;;;;;5009511;28;20225;-69
2021/09/04 08:24:44;;;;;;;6.07;5.47;;;19.30;99.90;;;;;;4987456;28;20229;-71
2021/09/04 08:27:09;;;;;;;7.57;6.00;;;19.40;99.90;;;;;;5005982;28;20460;-69
2021/09/04 08:29:35;;;;;;;6.80;5.87;;;19.50;99.90;;;;;;4989191;28;20213;-69
2021/09/04 08:32:01;;;;;;;6.13;5.40;;;19.60;99.90;;;;;;4983199;28;20300;-69
2021/09/04 08:34:27;;;;;;;7.27;6.00;;;19.60;99.90;;;;;;5006509;28;20695;-69
2021/09/04 08:36:52;;;;;;;7.37;5.93;;;19.70;99.90;;;;;;4987347;28;20213;-70
2021/09/04 08:39:18;;;;;;;8.20;6.03;;;19.90;99.90;;;;;;4989448;28;20675;-69
2021/09/04 08:41:44;;;;;;;6.90;5.40;;;20.00;99.90;;;;;;4987101;28;20328;-70
2021/09/04 08:44:10;;;;;;;6.57;5.77;;;20.10;99.90;;;;;;5004663;28;20653;-69
2021/09/04 08:46:37;;;;;;;9.67;7.40;;;20.20;99.90;;;;;;5005613;28;20552;-69
2021/09/04 08:49:05;;;;;;;6.30;5.70;;;20.30;99.90;;;;;;4984878;28;20249;-69
2021/09/04 08:51:32;;;;;;;6.93;6.23;;;20.40;99.90;;;;;;5001705;28;20981;-69
2021/09/04 08:53:57;;;;;;;7.80;5.53;;;20.50;99.90;;;;;;4986568;28;20507;-69
2021/09/04 08:56:24;;;;;;;14.63;6.30;;;20.60;99.90;;;;;;5017221;28;20517;-69
2021/09/04 08:58:49;;;;;;;10.37;6.67;;;20.60;99.90;;;;;;4989959;28;20236;-69
2021/09/04 09:01:19;;;;;;;6.87;6.17;;;20.70;99.90;;;;;;4985504;28;21014;-69
2021/09/04 09:03:45;;;;;;;6.83;6.20;;;20.90;99.90;;;;;;4986693;28;20260;-70
2021/09/04 09:06:12;;;;;;;7.33;6.03;;;21.10;99.90;;;;;;4989326;28;20467;-69
2021/09/04 09:08:44;;;;;;;6.40;5.67;;;21.30;99.90;;;;;;4986960;28;20471;-69
2021/09/04 09:11:10;;;;;;;7.30;6.17;;;21.40;99.90;;;;;;4991867;28;20992;-70
2021/09/04 09:13:50;;;;;;;5.33;4.83;;;21.50;99.90;;;;;;4994066;28;20478;-70
2021/09/04 09:16:17;;;;;;;7.33;6.30;;;21.60;99.90;;;;;;4990945;28;20456;-69
2021/09/04 09:18:58;;;;;;;6.67;5.53;;;21.60;99.90;;;;;;4985466;28;21011;-69
2021/09/04 09:21:27;;;;;;;8.80;6.27;;;21.70;99.90;;;;;;5005609;28;20464;-69
2021/09/04 09:24:14;;;;;;;8.40;6.23;;;21.80;99.90;;;;;;5010966;28;20499;-70
2021/09/04 09:27:06;;;;;;;8.33;6.00;;;21.90;99.90;;;;;;4991714;28;20501;-70
2021/09/04 09:29:35;;;;;;;5.73;5.23;;;21.90;99.90;;;;;;4992121;28;20626;-70
2021/09/04 09:32:05;;;;;;;8.63;5.87;;;22.10;99.90;;;;;;5005089;28;20475;-69
2021/09/04 09:34:42;;;;;;;7.00;6.30;;;22.10;99.90;;;;;;4988203;28;20475;-69
2021/09/04 09:37:09;;;;;;;6.80;5.60;;;22.20;99.90;;;;;;4985356;28;20462;-69
2021/09/04 09:39:40;;;;;;;13.47;6.60;;;22.20;99.90;;;;;;4993349;28;20483;-69
2021/09/04 09:42:08;;;;;;;5.87;5.27;;;22.30;99.90;;;;;;5002748;28;20455;-69
2021/09/04 09:44:35;;;;;;;6.93;5.93;;;22.40;99.90;;;;;;4990203;28;20468;-70
2021/09/04 09:47:10;;;;;;;6.13;5.50;;;22.50;99.90;;;;;;4991216;28;20595;-69
2021/09/04 09:49:38;;;;;;;6.40;5.77;;;22.50;99.90;;;;;;4988369;28;20474;-69
2021/09/04 09:52:15;;;;;;;6.23;5.63;;;22.60;99.90;;;;;;5004002;28;20484;-69
2021/09/04 09:54:42;;;;;;;6.23;5.63;;;22.70;99.90;;;;;;5007100;28;20468;-69
2021/09/04 09:57:09;;;;;;;6.50;5.90;;;22.80;99.90;;;;;;5010993;28;20522;-69
2021/09/04 09:59:36;;;;;;;7.23;6.03;;;22.90;99.90;;;;;;4992943;28;20460;-70
2021/09/04 10:02:11;;;;;;;6.77;5.97;;;23.00;99.90;;;;;;4990606;28;20472;-69
2021/09/04 10:04:39;;;;;;;6.07;5.57;;;23.10;99.90;;;;;;5012029;28;20558;-70
2021/09/04 10:07:06;;;;;;;6.30;5.70;;;23.30;99.90;;;;;;4984139;28;20490;-69
2021/09/04 10:09:32;;;;;;;8.80;6.00;;;23.50;99.90;;;;;;5002849;28;20458;-69
2021/09/04 10:11:58;;;;;;;10.40;6.13;;;23.60;99.90;;;;;;4996388;28;20510;-70
2021/09/04 10:14:25;;;;;;;8.23;6.20;;;23.50;99.90;;;;;;4989484;28;20212;-70
2021/09/04 10:16:58;;;;;;;6.77;5.60;;;23.60;99.90;;;;;;4997861;28;20463;-70
2021/09/04 10:19:32;;;;;;;6.00;5.40;;;23.60;99.90;;;;;;4989144;28;20454;-68
2021/09/04 10:22:04;;;;;;;6.60;5.90;;;23.80;99.90;;;;;;5006648;28;20552;-70
2021/09/04 10:24:49;;;;;;;6.03;5.53;;;23.80;99.90;;;;;;4989641;28;20538;-69
2021/09/04 10:27:39;;;;;;;7.30;6.00;;;24.00;99.90;;;;;;5002097;28;20448;-69
2021/09/04 10:30:24;;;;;;;7.90;5.97;;;24.00;99.90;;;;;;4984050;28;20525;-70
2021/09/04 10:33:03;;;;;;;6.00;5.40;;;24.10;99.90;;;;;;4987035;28;20462;-69
2021/09/04 10:35:49;;;;;;;8.00;6.63;;;24.30;99.90;;;;;;5005770;28;20984;-69
2021/09/04 10:38:18;;;;;;;7.17;6.27;;;24.40;99.90;;;;;;5004538;28;20459;-70
2021/09/04 10:40:45;;;;;;;6.30;5.53;;;24.40;99.90;;;;;;4986765;28;20525;-69
2021/09/04 10:43:11;;;;;;;6.37;5.77;;;24.50;99.90;;;;;;5005264;28;20471;-69
2021/09/04 10:45:38;;;;;;;6.30;5.70;;;24.60;99.90;;;;;;4986569;28;20472;-69
2021/09/04 10:48:17;;;;;;;6.50;5.90;;;24.60;99.90;;;;;;5001485;28;20488;-70
2021/09/04 10:51:03;;;;;;;5.57;5.00;;;24.50;99.90;;;;;;5004676;28;20455;-69
2021/09/04 10:53:46;;;;;;;6.00;5.43;;;24.70;99.90;;;;;;4988738;28;20866;-69
2021/09/04 10:56:21;;;;;;;5.23;4.73;;;24.60;99.50;;;;;;5004904;28;20543;-70
2021/09/04 10:58:48;;;;;;;5.80;5.23;;;24.60;99.70;;;;;;4997690;28;20459;-69
2021/09/04 11:01:17;;;;;;;5.67;5.07;;;24.70;99.80;;;;;;4987911;28;20456;-69
2021/09/04 11:03:49;;;;;;;6.00;5.40;;;24.70;99.10;;;;;;5005599;28;20471;-69
2021/09/04 11:06:19;;;;;;;6.57;5.43;;;24.80;99.10;;;;;;4988569;28;20452;-69
2021/09/04 11:08:45;;;;;;;5.87;5.20;;;24.90;99.10;;;;;;4987481;28;20837;-70
2021/09/04 11:11:35;;;;;;;10.03;5.07;;;24.90;98.00;;;;;;4987681;28;20517;-69
2021/09/04 11:14:18;;;;;;;5.33;4.83;;;25.00;98.80;;;;;;5004441;28;20456;-69
2021/09/04 11:16:47;;;;;;;5.93;5.20;;;25.00;97.80;;;;;;5008892;28;20486;-70
2021/09/04 11:19:27;;;;;;;5.77;4.73;;;24.80;97.60;;;;;;5005519;28;20463;-70
2021/09/04 11:21:57;;;;;;;5.90;5.30;;;24.80;98.00;;;;;;5003860;28;20475;-70
2021/09/04 11:24:46;;;;;;;6.17;5.57;;;24.90;98.10;;;;;;5005412;28;20476;-70
2021/09/04 11:27:19;;;;;;;6.47;5.17;;;25.00;97.40;;;;;;4989669;28;20456;-70
2021/09/04 11:29:53;;;;;;;7.03;4.43;;;25.10;97.60;;;;;;4986283;28;20467;-71
2021/09/04 11:32:25;;;;;;;5.20;4.70;;;25.10;97.30;;;;;;5005695;28;20475;-69
2021/09/04 11:34:59;;;;;;;4.97;4.47;;;25.20;97.20;;;;;;5011445;28;20498;-70
2021/09/04 11:37:33;;;;;;;4.70;4.30;;;25.10;96.50;;;;;;5004420;28;20557;-69
2021/09/04 11:40:05;;;;;;;4.63;4.23;;;25.10;96.80;;;;;;4986634;28;20616;-70
2021/09/04 11:42:33;;;;;;;5.27;4.77;;;25.20;97.20;;;;;;4996405;28;20610;-70
2021/09/04 11:45:20;;;;;;;5.20;4.80;;;25.30;97.20;;;;;;4987270;28;20470;-69
2021/09/04 11:47:49;;;;;;;6.10;4.30;;;25.50;96.70;;;;;;4985845;28;20809;-69
2021/09/04 11:50:31;;;;;;;5.97;5.37;;;25.50;96.20;;;;;;4989203;28;20835;-70
2021/09/04 11:52:58;;;;;;;5.30;4.80;;;25.60;96.80;;;;;;4998465;28;20463;-69
2021/09/04 11:55:25;;;;;;;5.03;4.53;;;25.80;96.90;;;;;;4993378;28;20451;-69
2021/09/04 11:57:56;;;;;;;5.43;5.00;;;26.00;96.90;;;;;;5007186;28;20501;-70
2021/09/04 12:00:27;;;;;;;5.23;4.80;;;26.10;96.50;;;;;;5016027;28;20467;-70
2021/09/04 12:03:13;;;;;;;5.50;5.00;;;26.20;95.40;;;;;;4984310;28;20475;-69
2021/09/04 12:05:46;;;;;;;5.23;4.73;;;26.40;94.60;;;;;;4994499;28;21052;-71
2021/09/04 12:08:21;;;;;;;5.70;4.27;;;26.50;95.60;;;;;;5004681;28;20872;-71
2021/09/04 12:10:47;;;;;;;4.67;4.13;;;26.50;95.70;;;;;;5002015;28;21034;-71
2021/09/04 12:13:20;;;;;;;5.27;4.60;;;26.60;95.40;;;;;;4989014;28;20452;-72
2021/09/04 12:15:50;;;;;;;5.10;4.63;;;26.80;94.30;;;;;;5001548;28;20505;-72
2021/09/04 12:18:29;;;;;;;5.20;4.80;;;27.00;94.70;;;;;;5002570;28;20451;-71
2021/09/04 12:20:56;;;;;;;5.60;4.93;;;27.10;94.50;;;;;;4984518;28;20462;-72
2021/09/04 12:23:27;;;;;;;7.33;4.70;;;27.10;94.20;;;;;;5022097;28;20470;-71
2021/09/04 12:26:13;;;;;;;4.93;4.53;;;27.10;93.60;;;;;;5000793;28;20465;-71
2021/09/04 12:28:39;;;;;;;5.47;4.67;;;27.00;93.40;;;;;;5019800;28;20482;-71
2021/09/04 12:31:08;;;;;;;5.57;4.97;;;27.00;93.90;;;;;;5012017;28;20464;-71
2021/09/04 12:33:55;;;;;;;5.90;5.40;;;27.00;93.50;;;;;;5009459;28;20228;-71
2021/09/04 12:36:27;;;;;;;4.70;4.30;;;27.00;94.10;;;;;;5006004;28;20583;-71
2021/09/04 12:38:56;;;;;;;5.10;4.70;;;27.10;94.20;;;;;;4996243;28;20454;-71
2021/09/04 12:41:32;;;;;;;5.90;5.30;;;27.20;93.00;;;;;;4995711;28;21091;-70
2021/09/04 12:44:02;;;;;;;5.30;4.80;;;27.20;94.00;;;;;;5006503;28;20467;-71
2021/09/04 12:46:39;;;;;;;5.37;4.87;;;27.20;93.70;;;;;;5007671;28;20462;-71
2021/09/04 12:49:26;;;;;;;5.10;4.70;;;27.20;93.10;;;;;;5006333;28;20475;-72